createdAt,value
2018-07-20T00:00:39.870Z,19.024963
2018-07-20T00:01:39.953Z,19.024963
2018-07-20T00:02:40.046Z,18.98468
2018-07-20T00:03:40.125Z,18.98468
2018-07-20T00:04:40.213Z,18.964539
2018-07-20T00:05:40.293Z,18.964539
2018-07-20T00:06:40.380Z,18.934326
2018-07-20T00:07:40.460Z,18.924255
2018-07-20T00:08:40.548Z,18.904114
2018-07-20T00:09:40.627Z,18.894043
2018-07-20T00:10:40.703Z,18.863831
2018-07-20T00:11:40.818Z,18.863831
2018-07-20T00:12:40.908Z,18.883972
2018-07-20T00:13:41.001Z,18.883972
2018-07-20T00:14:41.073Z,18.863831
2018-07-20T00:15:41.182Z,18.863831
2018-07-20T00:16:41.339Z,18.833618
2018-07-20T00:17:41.363Z,18.843689
2018-07-20T00:18:42.464Z,18.843689
2018-07-20T00:19:41.573Z,18.843689
2018-07-20T00:20:41.634Z,18.843689
2018-07-20T00:21:41.715Z,18.843689
2018-07-20T00:22:41.814Z,18.843689
2018-07-20T00:23:41.917Z,18.843689
2018-07-20T00:24:43.026Z,18.863831
2018-07-20T00:25:42.116Z,18.843689
2018-07-20T00:26:42.196Z,18.863831
2018-07-20T00:27:42.278Z,18.843689
2018-07-20T00:28:42.361Z,18.833618
2018-07-20T00:29:42.453Z,18.843689
2018-07-20T00:30:42.537Z,18.843689
2018-07-20T00:31:42.632Z,18.843689
2018-07-20T00:32:42.758Z,18.843689
2018-07-20T00:33:42.834Z,18.843689
2018-07-20T00:34:42.924Z,18.843689
2018-07-20T00:35:43.005Z,18.833618
2018-07-20T00:36:43.093Z,18.883972
2018-07-20T00:37:43.214Z,18.883972
2018-07-20T00:38:43.306Z,18.863831
2018-07-20T00:39:43.381Z,18.863831
2018-07-20T00:40:43.488Z,18.904114
2018-07-20T00:41:43.573Z,18.894043
2018-07-20T00:42:43.683Z,18.904114
2018-07-20T00:43:43.764Z,18.904114
2018-07-20T00:44:43.869Z,18.904114
2018-07-20T00:45:43.953Z,18.934326
2018-07-20T00:46:44.071Z,18.924255
2018-07-20T00:47:44.164Z,18.924255
2018-07-20T00:48:44.256Z,18.954468
2018-07-20T00:49:44.333Z,18.934326
2018-07-20T00:50:44.432Z,18.954468
2018-07-20T00:51:44.546Z,18.954468
2018-07-20T00:52:44.628Z,18.954468
2018-07-20T00:53:44.715Z,18.964539
2018-07-20T00:54:44.799Z,18.954468
2018-07-20T00:55:44.909Z,18.954468
2018-07-20T00:56:45.008Z,18.954468
2018-07-20T00:57:45.125Z,18.934326
2018-07-20T00:58:45.184Z,18.924255
2018-07-20T00:59:45.268Z,18.894043
2018-07-20T01:00:45.358Z,18.894043
2018-07-20T01:01:45.448Z,18.883972
2018-07-20T01:02:45.537Z,18.863831
2018-07-20T01:03:45.631Z,18.863831
2018-07-20T01:04:45.737Z,18.833618
2018-07-20T01:05:45.826Z,18.833618
2018-07-20T01:06:45.919Z,18.843689
2018-07-20T01:07:46.003Z,18.803406
2018-07-20T01:08:46.090Z,18.783264
2018-07-20T01:09:46.188Z,18.773193
2018-07-20T01:10:46.277Z,18.753052
2018-07-20T01:11:46.364Z,18.73291
2018-07-20T01:12:46.450Z,18.73291
2018-07-20T01:13:46.595Z,18.712769
2018-07-20T01:14:46.668Z,18.712769
2018-07-20T01:15:46.773Z,18.712769
2018-07-20T01:16:46.851Z,18.702698
2018-07-20T01:17:46.947Z,18.712769
2018-07-20T01:18:47.040Z,18.702698
2018-07-20T01:19:47.156Z,18.702698
2018-07-20T01:20:47.250Z,18.682556
2018-07-20T01:21:47.348Z,18.652344
2018-07-20T01:22:47.436Z,18.652344
2018-07-20T01:23:47.555Z,18.652344
2018-07-20T01:24:47.648Z,18.622131
2018-07-20T01:25:47.744Z,18.60199
2018-07-20T01:26:47.858Z,18.591919
2018-07-20T01:27:48.972Z,18.591919
2018-07-20T01:28:48.058Z,18.60199
2018-07-20T01:29:48.180Z,18.591919
2018-07-20T01:30:48.258Z,18.591919
2018-07-20T01:31:48.363Z,18.591919
2018-07-20T01:32:48.458Z,18.561707
2018-07-20T01:33:48.572Z,18.521423
2018-07-20T01:34:48.672Z,18.531494
2018-07-20T01:35:48.764Z,18.521423
2018-07-20T01:36:48.857Z,18.491211
2018-07-20T01:37:48.950Z,18.471069
2018-07-20T01:38:49.044Z,18.450928
2018-07-20T01:39:49.142Z,18.450928
2018-07-20T01:40:50.249Z,18.440857
2018-07-20T01:41:49.369Z,18.400574
2018-07-20T01:42:49.457Z,18.400574
2018-07-20T01:43:49.595Z,18.400574
2018-07-20T01:44:49.679Z,18.380432
2018-07-20T01:45:49.779Z,18.35022
2018-07-20T01:46:49.864Z,18.370361
2018-07-20T01:47:49.979Z,18.340149
2018-07-20T01:48:50.088Z,18.330078
2018-07-20T01:49:50.198Z,18.330078
2018-07-20T01:50:50.303Z,18.279724
2018-07-20T01:51:50.399Z,18.289795
2018-07-20T01:52:50.526Z,18.259583
2018-07-20T01:53:50.620Z,18.22937
2018-07-20T01:54:50.746Z,18.249512
2018-07-20T01:55:50.852Z,18.22937
2018-07-20T01:56:50.941Z,18.219299
2018-07-20T01:57:51.055Z,18.189087
2018-07-20T01:58:51.176Z,18.189087
2018-07-20T01:59:51.273Z,18.189087
2018-07-20T02:00:51.368Z,18.179016
2018-07-20T02:01:51.474Z,18.158875
2018-07-20T02:02:51.580Z,18.158875
2018-07-20T02:03:51.695Z,18.128662
2018-07-20T02:04:51.806Z,18.148804
2018-07-20T02:05:51.934Z,18.128662
2018-07-20T02:06:52.023Z,18.09845
2018-07-20T02:07:52.139Z,18.09845
2018-07-20T02:08:52.249Z,18.078308
2018-07-20T02:09:52.369Z,18.078308
2018-07-20T02:10:52.495Z,18.068237
2018-07-20T02:11:52.587Z,18.068237
2018-07-20T02:12:52.706Z,18.068237
2018-07-20T02:13:52.817Z,18.048096
2018-07-20T02:14:52.925Z,18.048096
2018-07-20T02:15:53.051Z,18.048096
2018-07-20T02:16:53.166Z,18.048096
2018-07-20T02:17:53.268Z,18.048096
2018-07-20T02:18:53.390Z,18.048096
2018-07-20T02:19:53.550Z,18.048096
2018-07-20T02:20:53.621Z,18.078308
2018-07-20T02:21:53.726Z,18.108521
2018-07-20T02:22:53.830Z,18.108521
2018-07-20T02:23:53.937Z,18.078308
2018-07-20T02:24:54.057Z,18.128662
2018-07-20T02:25:54.191Z,18.09845
2018-07-20T02:26:54.268Z,18.128662
2018-07-20T02:27:54.370Z,18.108521
2018-07-20T02:28:54.476Z,18.128662
2018-07-20T02:29:54.581Z,18.108521
2018-07-20T02:30:54.684Z,18.128662
2018-07-20T02:31:54.788Z,18.148804
2018-07-20T02:32:54.900Z,18.158875
2018-07-20T02:33:54.995Z,18.179016
2018-07-20T02:34:55.100Z,18.179016
2018-07-20T02:35:55.205Z,18.189087
2018-07-20T02:36:55.319Z,18.219299
2018-07-20T02:37:55.423Z,18.199158
2018-07-20T02:38:55.527Z,18.249512
2018-07-20T02:39:55.634Z,18.259583
2018-07-20T02:40:55.745Z,18.279724
2018-07-20T02:41:55.869Z,18.259583
2018-07-20T02:42:55.961Z,18.309937
2018-07-20T02:43:56.070Z,18.330078
2018-07-20T02:44:56.167Z,18.330078
2018-07-20T02:45:56.280Z,18.340149
2018-07-20T02:46:56.389Z,18.370361
2018-07-20T02:47:56.497Z,18.380432
2018-07-20T02:48:56.606Z,18.400574
2018-07-20T02:49:56.714Z,18.430786
2018-07-20T02:50:56.822Z,18.450928
2018-07-20T02:51:56.937Z,18.450928
2018-07-20T02:52:57.050Z,18.450928
2018-07-20T02:53:57.150Z,18.450928
2018-07-20T02:54:57.255Z,18.450928
2018-07-20T02:55:57.364Z,18.450928
2018-07-20T02:56:57.475Z,18.471069
2018-07-20T02:57:57.573Z,18.450928
2018-07-20T02:58:57.682Z,18.491211
2018-07-20T02:59:57.794Z,18.450928
2018-07-20T03:00:57.903Z,18.491211
2018-07-20T03:01:58.039Z,18.471069
2018-07-20T03:02:58.105Z,18.471069
2018-07-20T03:03:58.207Z,18.471069
2018-07-20T03:04:58.316Z,18.491211
2018-07-20T03:05:58.422Z,18.471069
2018-07-20T03:06:58.536Z,18.471069
2018-07-20T03:07:58.649Z,18.450928
2018-07-20T03:08:58.788Z,18.450928
2018-07-20T03:09:58.865Z,18.450928
2018-07-20T03:10:58.973Z,18.440857
2018-07-20T03:11:59.081Z,18.440857
2018-07-20T03:12:59.195Z,18.471069
2018-07-20T03:13:59.303Z,18.450928
2018-07-20T03:14:59.414Z,18.440857
2018-07-20T03:15:59.531Z,18.430786
2018-07-20T03:16:59.642Z,18.450928
2018-07-20T03:17:59.752Z,18.440857
2018-07-20T03:18:59.865Z,18.471069
2018-07-20T03:19:59.972Z,18.450928
2018-07-20T03:21:00.127Z,18.450928
2018-07-20T03:22:00.208Z,18.471069
2018-07-20T03:23:00.325Z,18.450928
2018-07-20T03:24:00.422Z,18.450928
2018-07-20T03:25:00.533Z,18.471069
2018-07-20T03:26:00.644Z,18.440857
2018-07-20T03:27:00.754Z,18.440857
2018-07-20T03:28:00.864Z,18.450928
2018-07-20T03:29:00.983Z,18.450928
2018-07-20T03:30:01.090Z,18.430786
2018-07-20T03:31:01.202Z,18.430786
2018-07-20T03:32:01.317Z,18.430786
2018-07-20T03:33:01.419Z,18.430786
2018-07-20T03:34:01.533Z,18.410645
2018-07-20T03:35:01.636Z,18.410645
2018-07-20T03:36:01.741Z,18.410645
2018-07-20T03:37:01.851Z,18.400574
2018-07-20T03:38:01.968Z,18.380432
2018-07-20T03:39:02.082Z,18.380432
2018-07-20T03:40:02.186Z,18.340149
2018-07-20T03:41:02.287Z,18.370361
2018-07-20T03:42:02.395Z,18.35022
2018-07-20T03:43:02.523Z,18.35022
2018-07-20T03:44:02.613Z,18.330078
2018-07-20T03:45:02.720Z,18.330078
2018-07-20T03:46:02.832Z,18.340149
2018-07-20T03:47:02.932Z,18.330078
2018-07-20T03:48:03.046Z,18.340149
2018-07-20T03:49:03.202Z,18.309937
2018-07-20T03:50:03.268Z,18.289795
2018-07-20T03:51:03.378Z,18.289795
2018-07-20T03:52:04.506Z,18.289795
2018-07-20T03:53:03.582Z,18.279724
2018-07-20T03:54:04.687Z,18.289795
2018-07-20T03:55:03.808Z,18.289795
2018-07-20T03:56:03.898Z,18.289795
2018-07-20T03:57:04.008Z,18.289795
2018-07-20T03:58:04.116Z,18.279724
2018-07-20T03:59:04.224Z,18.259583
2018-07-20T04:00:04.336Z,18.279724
2018-07-20T04:01:04.441Z,18.259583
2018-07-20T04:02:04.545Z,18.249512
2018-07-20T04:03:04.668Z,18.279724
2018-07-20T04:04:04.774Z,18.22937
2018-07-20T04:05:04.868Z,18.259583
2018-07-20T04:06:04.966Z,18.199158
2018-07-20T04:07:05.058Z,18.219299
2018-07-20T04:08:05.153Z,18.22937
2018-07-20T04:09:05.262Z,18.219299
2018-07-20T04:10:05.358Z,18.22937
2018-07-20T04:11:05.463Z,18.249512
2018-07-20T04:12:05.561Z,18.22937
2018-07-20T04:13:05.670Z,18.249512
2018-07-20T04:14:05.789Z,18.249512
2018-07-20T04:15:05.869Z,18.249512
2018-07-20T04:16:05.969Z,18.259583
2018-07-20T04:17:06.071Z,18.279724
2018-07-20T04:18:06.171Z,18.279724
2018-07-20T04:19:06.557Z,18.279724
2018-07-20T04:20:06.368Z,18.279724
2018-07-20T04:21:06.465Z,18.289795
2018-07-20T04:22:06.567Z,18.309937
2018-07-20T04:23:06.663Z,18.289795
2018-07-20T04:24:06.757Z,18.309937
2018-07-20T04:25:06.858Z,18.340149
2018-07-20T04:26:06.944Z,18.330078
2018-07-20T04:27:07.063Z,18.340149
2018-07-20T04:28:07.158Z,18.330078
2018-07-20T04:29:07.253Z,18.330078
2018-07-20T04:30:07.350Z,18.330078
2018-07-20T04:31:07.442Z,18.340149
2018-07-20T04:32:07.553Z,18.309937
2018-07-20T04:33:07.663Z,18.309937
2018-07-20T04:34:07.777Z,18.340149
2018-07-20T04:35:07.880Z,18.330078
2018-07-20T04:36:07.967Z,18.330078
2018-07-20T04:37:08.061Z,18.289795
2018-07-20T04:38:08.151Z,18.330078
2018-07-20T04:39:08.257Z,18.309937
2018-07-20T04:40:08.385Z,18.289795
2018-07-20T04:41:08.475Z,18.309937
2018-07-20T04:42:08.569Z,18.309937
2018-07-20T04:43:08.666Z,18.309937
2018-07-20T04:44:08.762Z,18.279724
2018-07-20T04:45:08.877Z,18.279724
2018-07-20T04:46:08.972Z,18.259583
2018-07-20T04:47:09.074Z,18.259583
2018-07-20T04:48:09.170Z,18.249512
2018-07-20T04:49:09.277Z,18.22937
2018-07-20T04:50:09.397Z,18.249512
2018-07-20T04:51:09.486Z,18.199158
2018-07-20T04:52:09.614Z,18.189087
2018-07-20T04:53:09.703Z,18.189087
2018-07-20T04:54:09.832Z,18.179016
2018-07-20T04:55:09.929Z,18.189087
2018-07-20T04:56:10.018Z,18.158875
2018-07-20T04:57:10.128Z,18.189087
2018-07-20T04:58:10.234Z,18.189087
2018-07-20T04:59:10.342Z,18.189087
2018-07-20T05:00:10.475Z,18.189087
2018-07-20T05:01:10.553Z,18.179016
2018-07-20T05:02:10.664Z,18.179016
2018-07-20T05:03:10.781Z,18.199158
2018-07-20T05:04:10.897Z,18.199158
2018-07-20T05:05:11.010Z,18.199158
2018-07-20T05:06:11.126Z,18.219299
2018-07-20T05:07:11.221Z,18.219299
2018-07-20T05:08:11.347Z,18.22937
2018-07-20T05:09:11.446Z,18.22937
2018-07-20T05:10:11.571Z,18.22937
2018-07-20T05:11:11.681Z,18.249512
2018-07-20T05:12:11.784Z,18.289795
2018-07-20T05:13:11.897Z,18.309937
2018-07-20T05:14:12.000Z,18.309937
2018-07-20T05:15:12.114Z,18.330078
2018-07-20T05:16:12.219Z,18.35022
2018-07-20T05:17:12.304Z,18.370361
2018-07-20T05:18:12.422Z,18.400574
2018-07-20T05:19:12.520Z,18.410645
2018-07-20T05:20:12.628Z,18.430786
2018-07-20T05:21:12.750Z,18.430786
2018-07-20T05:22:12.841Z,18.471069
2018-07-20T05:23:12.939Z,18.471069
2018-07-20T05:24:13.129Z,18.491211
2018-07-20T05:25:13.161Z,18.521423
2018-07-20T05:26:13.273Z,18.531494
2018-07-20T05:27:13.384Z,18.551636
2018-07-20T05:28:13.479Z,18.561707
2018-07-20T05:29:13.573Z,18.591919
2018-07-20T05:30:13.676Z,18.591919
2018-07-20T05:31:13.770Z,18.622131
2018-07-20T05:32:13.868Z,18.622131
2018-07-20T05:33:13.960Z,18.632202
2018-07-20T05:34:14.052Z,18.662415
2018-07-20T05:35:14.152Z,18.652344
2018-07-20T05:36:14.268Z,18.682556
2018-07-20T05:37:14.365Z,18.712769
2018-07-20T05:38:14.545Z,18.702698
2018-07-20T05:39:14.552Z,18.742981
2018-07-20T05:40:14.638Z,18.753052
2018-07-20T05:41:14.735Z,18.753052
2018-07-20T05:42:14.867Z,18.813477
2018-07-20T05:43:14.964Z,18.833618
2018-07-20T05:44:15.054Z,18.843689
2018-07-20T05:45:15.139Z,18.863831
2018-07-20T05:46:15.244Z,18.863831
2018-07-20T05:47:15.339Z,18.924255
2018-07-20T05:48:15.450Z,18.934326
2018-07-20T05:49:15.546Z,18.964539
2018-07-20T05:50:15.643Z,18.98468
2018-07-20T05:51:15.735Z,19.004822
2018-07-20T05:52:15.828Z,19.004822
2018-07-20T05:53:15.924Z,19.065247
2018-07-20T05:54:16.014Z,19.115601
2018-07-20T05:55:16.101Z,19.10553
2018-07-20T05:56:16.192Z,19.135742
2018-07-20T05:57:16.277Z,19.145813
2018-07-20T05:58:16.365Z,19.186096
2018-07-20T05:59:16.445Z,19.216309
2018-07-20T06:00:16.548Z,19.23645
2018-07-20T06:01:16.629Z,19.296875
2018-07-20T06:02:16.725Z,19.306946
2018-07-20T06:03:16.836Z,19.3573
2018-07-20T06:04:16.910Z,19.397583
2018-07-20T06:05:17.033Z,19.407654
2018-07-20T06:06:17.119Z,19.478149
2018-07-20T06:07:17.202Z,19.48822
2018-07-20T06:08:18.272Z,19.548645
2018-07-20T06:09:17.364Z,19.619141
2018-07-20T06:10:17.448Z,19.639282
2018-07-20T06:11:17.559Z,19.689636
2018-07-20T06:12:18.502Z,19.73999
2018-07-20T06:13:17.686Z,19.790344
2018-07-20T06:14:17.875Z,19.840698
2018-07-20T06:15:17.838Z,19.880981
2018-07-20T06:16:17.914Z,19.911194
2018-07-20T06:17:17.990Z,19.99176
2018-07-20T06:18:18.087Z,20.032043
2018-07-20T06:19:18.157Z,20.062256
2018-07-20T06:20:18.249Z,20.11261
2018-07-20T06:21:18.389Z,20.183105
2018-07-20T06:22:18.369Z,20.193176
2018-07-20T06:23:18.445Z,20.253601
2018-07-20T06:24:18.527Z,20.314026
2018-07-20T06:25:19.246Z,20.374451
2018-07-20T06:26:18.689Z,20.434875
2018-07-20T06:27:18.767Z,20.475159
2018-07-20T06:28:18.930Z,20.515442
2018-07-20T06:29:18.920Z,20.575867
2018-07-20T06:30:22.535Z,20.666504
2018-07-20T06:31:20.055Z,20.686646
2018-07-20T06:32:19.128Z,20.767212
2018-07-20T06:33:19.183Z,20.847778
2018-07-20T06:34:19.246Z,20.928345
2018-07-20T06:35:19.313Z,20.98877
2018-07-20T06:36:19.490Z,21.069336
2018-07-20T06:37:19.823Z,21.180115
2018-07-20T06:38:19.514Z,21.220398
2018-07-20T06:39:19.584Z,21.321106
2018-07-20T06:40:19.967Z,21.391602
2018-07-20T06:41:19.711Z,21.452026
2018-07-20T06:42:19.799Z,21.542664
2018-07-20T06:43:19.869Z,21.603088
2018-07-20T06:44:20.532Z,21.723938
2018-07-20T06:45:20.405Z,21.764221
2018-07-20T06:46:20.108Z,21.804504
2018-07-20T06:47:20.079Z,21.875
2018-07-20T06:48:21.446Z,21.885071
2018-07-20T06:49:21.005Z,21.945496
2018-07-20T06:50:20.251Z,22.036133
2018-07-20T06:51:20.305Z,22.076416
2018-07-20T06:52:20.346Z,22.12677
2018-07-20T06:53:20.410Z,22.167053
2018-07-20T06:54:20.471Z,22.24762
2018-07-20T06:55:20.506Z,22.287903
2018-07-20T06:56:20.591Z,22.318115
2018-07-20T06:57:20.620Z,22.37854
2018-07-20T06:58:20.657Z,22.37854
2018-07-20T06:59:20.726Z,22.469177
2018-07-20T07:00:20.766Z,22.50946
2018-07-20T07:01:20.784Z,22.50946
2018-07-20T07:02:20.820Z,22.549744
2018-07-20T07:03:21.049Z,22.650452
2018-07-20T07:04:20.936Z,22.660522
2018-07-20T07:05:21.094Z,22.731018
2018-07-20T07:06:21.028Z,22.75116
2018-07-20T07:07:21.076Z,22.76123
2018-07-20T07:08:21.144Z,22.811584
2018-07-20T07:09:21.226Z,22.841797
2018-07-20T07:10:21.256Z,22.851868
2018-07-20T07:11:21.327Z,22.942505
2018-07-20T07:12:21.308Z,22.992859
2018-07-20T07:13:21.344Z,23.00293
2018-07-20T07:14:21.352Z,23.033142
2018-07-20T07:15:21.549Z,23.123779
2018-07-20T07:16:21.552Z,23.103638
2018-07-20T07:17:21.507Z,23.174133
2018-07-20T07:18:21.527Z,23.184204
2018-07-20T07:19:21.555Z,23.284912
2018-07-20T07:20:21.594Z,23.335266
2018-07-20T07:21:21.626Z,23.405762
2018-07-20T07:22:21.705Z,23.496399
2018-07-20T07:23:21.714Z,23.425903
2018-07-20T07:24:21.744Z,23.50647
2018-07-20T07:25:22.193Z,23.576965
2018-07-20T07:26:22.040Z,23.617249
2018-07-20T07:27:21.834Z,23.687744
2018-07-20T07:28:21.865Z,23.677673
2018-07-20T07:29:21.890Z,23.778381
2018-07-20T07:30:21.909Z,23.838806
2018-07-20T07:31:21.925Z,23.909302
2018-07-20T07:32:21.962Z,24.01001
2018-07-20T07:33:22.057Z,23.959656
2018-07-20T07:34:22.009Z,24.030151
2018-07-20T07:35:22.357Z,24.130859
2018-07-20T07:36:22.077Z,24.161072
2018-07-20T07:37:22.112Z,24.281921
2018-07-20T07:38:22.126Z,24.231567
2018-07-20T07:39:22.171Z,24.352417
2018-07-20T07:40:22.204Z,24.3927
2018-07-20T07:41:22.237Z,24.402771
2018-07-20T07:42:22.235Z,24.543762
2018-07-20T07:43:22.717Z,24.604187
2018-07-20T07:44:22.289Z,24.664612
2018-07-20T07:45:22.302Z,24.654541
2018-07-20T07:46:22.317Z,24.755249
2018-07-20T07:47:22.331Z,24.755249
2018-07-20T07:48:22.326Z,24.886169
2018-07-20T07:49:22.406Z,24.835815
2018-07-20T07:50:22.353Z,25.007019
2018-07-20T07:51:22.364Z,24.986877
2018-07-20T07:52:22.364Z,25.057373
2018-07-20T07:53:22.389Z,25.077515
2018-07-20T07:54:23.423Z,25.107727
2018-07-20T07:55:22.435Z,25.218506
2018-07-20T07:56:23.188Z,25.289001
2018-07-20T07:57:22.449Z,25.289001
2018-07-20T07:58:22.451Z,25.39978
2018-07-20T07:59:22.580Z,25.440063
2018-07-20T08:00:22.482Z,25.429993
2018-07-20T08:01:22.472Z,25.550842
2018-07-20T08:02:22.472Z,25.621338
2018-07-20T08:03:22.497Z,25.621338
2018-07-20T08:04:22.454Z,25.691833
2018-07-20T08:05:22.453Z,25.782471
2018-07-20T08:06:22.470Z,25.782471
2018-07-20T08:07:22.454Z,25.873108
2018-07-20T08:08:22.449Z,25.963745
2018-07-20T08:09:22.461Z,26.034241
2018-07-20T08:10:22.485Z,26.074524
2018-07-20T08:11:22.499Z,26.14502
2018-07-20T08:12:22.453Z,26.215515
2018-07-20T08:13:22.448Z,26.215515
2018-07-20T08:14:22.440Z,26.306152
2018-07-20T08:15:22.418Z,26.39679
2018-07-20T08:16:22.466Z,26.507568
2018-07-20T08:17:22.432Z,26.52771
2018-07-20T08:18:22.412Z,26.578064
2018-07-20T08:19:23.406Z,26.64856
2018-07-20T08:20:23.411Z,26.749268
2018-07-20T08:21:22.477Z,26.839905
2018-07-20T08:22:22.389Z,26.950684
2018-07-20T08:23:22.394Z,27.071533
2018-07-20T08:24:22.760Z,27.252808
2018-07-20T08:25:23.868Z,27.454224
2018-07-20T08:26:22.717Z,27.635498
2018-07-20T08:27:22.361Z,27.947693
2018-07-20T08:28:23.957Z,28.249817
2018-07-20T08:29:23.165Z,28.622437
2018-07-20T08:30:22.373Z,29.075623
2018-07-20T08:31:22.367Z,29.448242
2018-07-20T08:32:22.150Z,29.941711
2018-07-20T08:33:22.085Z,30.465393
2018-07-20T08:34:22.027Z,30.918579
2018-07-20T08:35:22.988Z,31.371765
2018-07-20T08:36:21.896Z,31.885376
2018-07-20T08:37:21.845Z,32.30835
2018-07-20T08:38:21.766Z,32.701111
2018-07-20T08:39:21.733Z,33.003235
2018-07-20T08:40:21.623Z,33.275146
2018-07-20T08:41:21.521Z,33.516846
2018-07-20T08:42:21.427Z,33.677979
2018-07-20T08:43:21.330Z,33.829041
2018-07-20T08:44:21.291Z,33.869324
2018-07-20T08:45:21.159Z,33.899536
2018-07-20T08:46:21.440Z,33.919678
2018-07-20T08:47:20.969Z,34.020386
2018-07-20T08:48:20.845Z,34.241943
2018-07-20T08:49:20.719Z,34.554138
2018-07-20T08:50:20.608Z,34.896545
2018-07-20T08:51:20.517Z,35.238953
2018-07-20T08:52:20.372Z,35.561218
2018-07-20T08:53:20.256Z,35.893555
2018-07-20T08:54:20.368Z,36.20575
2018-07-20T08:55:20.021Z,36.507874
2018-07-20T08:56:20.286Z,36.799927
2018-07-20T08:57:19.804Z,37.081909
2018-07-20T08:58:19.623Z,37.323608
2018-07-20T08:59:19.454Z,37.484741
2018-07-20T09:00:19.306Z,37.645874
2018-07-20T09:01:19.304Z,37.676086
2018-07-20T09:02:19.006Z,37.635803
2018-07-20T09:03:18.908Z,37.625732
2018-07-20T09:04:18.704Z,37.696228
2018-07-20T09:05:18.564Z,37.857361
2018-07-20T09:06:18.392Z,38.169556
2018-07-20T09:07:18.245Z,38.461609
2018-07-20T09:08:18.075Z,38.793945
2018-07-20T09:09:17.995Z,39.085999
2018-07-20T09:10:17.742Z,39.408264
2018-07-20T09:11:17.608Z,39.740601
2018-07-20T09:12:17.413Z,40.052795
2018-07-20T09:13:17.250Z,40.395203
2018-07-20T09:14:17.101Z,40.687256
2018-07-20T09:15:16.892Z,40.959167
2018-07-20T09:16:16.713Z,41.24115
2018-07-20T09:17:16.528Z,41.523132
2018-07-20T09:18:16.345Z,41.754761
2018-07-20T09:19:16.178Z,41.87561
2018-07-20T09:20:15.968Z,42.056885
2018-07-20T09:21:15.759Z,42.207947
2018-07-20T09:22:15.564Z,42.359009
2018-07-20T09:23:15.365Z,42.469788
2018-07-20T09:24:15.156Z,42.661133
2018-07-20T09:25:14.967Z,42.761841
2018-07-20T09:26:14.753Z,42.862549
2018-07-20T09:27:14.549Z,43.00354
2018-07-20T09:28:14.381Z,43.114319
2018-07-20T09:29:14.139Z,43.25531
2018-07-20T09:30:15.524Z,43.38623
2018-07-20T09:31:13.847Z,43.617859
2018-07-20T09:32:13.491Z,43.768921
2018-07-20T09:33:13.272Z,43.940125
2018-07-20T09:34:13.189Z,44.13147
2018-07-20T09:35:12.820Z,44.373169
2018-07-20T09:36:12.600Z,44.594727
2018-07-20T09:37:12.571Z,44.665222
2018-07-20T09:38:12.133Z,44.786072
2018-07-20T09:39:12.021Z,44.967346
2018-07-20T09:40:11.771Z,45.158691
2018-07-20T09:41:11.475Z,45.209045
2018-07-20T09:42:11.202Z,45.26947
2018-07-20T09:43:10.981Z,45.350037
2018-07-20T09:44:10.719Z,45.511169
2018-07-20T09:45:10.510Z,45.662231
2018-07-20T09:46:10.288Z,45.853577
2018-07-20T09:47:10.001Z,45.994568
2018-07-20T09:48:09.762Z,46.115417
2018-07-20T09:49:09.522Z,46.306763
2018-07-20T09:50:09.276Z,46.447754
2018-07-20T09:51:09.267Z,46.608887
2018-07-20T09:52:08.963Z,46.850586
2018-07-20T09:53:08.521Z,47.102356
2018-07-20T09:54:09.277Z,47.263489
2018-07-20T09:55:09.206Z,47.344055
2018-07-20T09:56:07.740Z,47.454834
2018-07-20T09:57:07.455Z,47.515259
2018-07-20T09:58:07.188Z,47.636108
2018-07-20T09:59:06.928Z,47.7771
2018-07-20T10:00:06.787Z,47.897949
2018-07-20T10:01:06.382Z,48.018799
2018-07-20T10:02:06.112Z,48.099365
2018-07-20T10:03:05.859Z,48.179932
2018-07-20T10:04:05.656Z,48.169861
2018-07-20T10:05:05.374Z,48.179932
2018-07-20T10:06:05.017Z,48.139648
2018-07-20T10:07:04.754Z,48.059082
2018-07-20T10:08:04.468Z,47.897949
2018-07-20T10:09:04.267Z,47.736816
2018-07-20T10:10:03.921Z,47.646179
2018-07-20T10:11:03.656Z,47.575684
2018-07-20T10:12:03.380Z,47.495117
2018-07-20T10:13:03.118Z,47.454834
2018-07-20T10:14:02.879Z,47.414551
2018-07-20T10:15:02.573Z,47.394409
2018-07-20T10:16:02.294Z,47.374268
2018-07-20T10:17:02.016Z,47.333984
2018-07-20T10:18:01.757Z,47.323914
2018-07-20T10:19:01.564Z,47.344055
2018-07-20T10:20:01.190Z,47.374268
2018-07-20T10:21:00.919Z,47.464905
2018-07-20T10:22:00.646Z,47.555542
2018-07-20T10:23:00.359Z,47.485046
2018-07-20T10:24:00.082Z,47.333984
2018-07-20T10:24:59.805Z,47.253418
2018-07-20T10:25:59.527Z,47.263489
2018-07-20T10:26:59.261Z,47.333984
2018-07-20T10:27:58.982Z,47.485046
2018-07-20T10:28:58.704Z,47.615967
2018-07-20T10:29:58.426Z,47.575684
2018-07-20T10:30:58.147Z,47.615967
2018-07-20T10:31:57.870Z,47.716675
2018-07-20T10:32:57.577Z,47.827454
2018-07-20T10:33:57.298Z,47.978516
2018-07-20T10:34:57.015Z,47.948303
2018-07-20T10:35:56.737Z,47.958374
2018-07-20T10:36:56.467Z,47.948303
2018-07-20T10:37:56.219Z,48.02887
2018-07-20T10:38:55.896Z,48.149719
2018-07-20T10:39:55.632Z,48.179932
2018-07-20T10:40:55.338Z,48.250427
2018-07-20T10:41:55.051Z,48.330994
2018-07-20T10:42:54.767Z,48.471985
2018-07-20T10:43:54.508Z,48.562622
2018-07-20T10:44:54.505Z,48.623047
2018-07-20T10:45:53.893Z,48.693542
2018-07-20T10:46:53.610Z,48.79425
2018-07-20T10:47:53.331Z,48.9151
2018-07-20T10:48:53.050Z,48.985596
2018-07-20T10:49:52.762Z,48.9151
2018-07-20T10:50:52.482Z,48.723755
2018-07-20T10:51:52.198Z,48.572693
2018-07-20T10:52:51.924Z,48.401489
2018-07-20T10:53:51.661Z,48.139648
2018-07-20T10:54:51.384Z,47.585754
2018-07-20T10:55:51.109Z,47.041931
2018-07-20T10:56:50.838Z,46.52832
2018-07-20T10:57:50.585Z,46.165771
2018-07-20T10:58:50.323Z,45.924072
2018-07-20T10:59:50.074Z,45.783081
2018-07-20T11:00:49.810Z,45.722656
2018-07-20T11:01:49.567Z,45.722656
2018-07-20T11:02:49.319Z,45.662231
2018-07-20T11:03:49.071Z,45.561523
2018-07-20T11:04:48.785Z,45.501099
2018-07-20T11:05:48.532Z,45.400391
2018-07-20T11:06:48.286Z,45.319824
2018-07-20T11:07:48.005Z,45.370178
2018-07-20T11:08:47.789Z,45.501099
2018-07-20T11:09:47.468Z,45.682373
2018-07-20T11:10:47.220Z,45.964355
2018-07-20T11:11:46.924Z,46.306763
2018-07-20T11:12:46.651Z,46.669312
2018-07-20T11:13:46.455Z,46.941223
2018-07-20T11:14:46.088Z,47.041931
2018-07-20T11:15:46.144Z,47.172852
2018-07-20T11:16:45.547Z,47.424622
2018-07-20T11:17:45.249Z,47.767029
2018-07-20T11:18:44.981Z,48.099365
2018-07-20T11:19:44.710Z,48.492126
2018-07-20T11:20:44.414Z,48.774109
2018-07-20T11:21:44.127Z,49.03595
2018-07-20T11:22:43.842Z,49.297791
2018-07-20T11:23:43.541Z,49.438782
2018-07-20T11:24:43.252Z,49.559631
2018-07-20T11:25:42.928Z,49.710693
2018-07-20T11:26:42.661Z,49.851685